createdAt,value
2019-02-11T00:00:46.223Z,99.99
2019-02-11T00:01:46.245Z,99.99
2019-02-11T00:02:46.275Z,99.99
2019-02-11T00:03:46.293Z,99.99
2019-02-11T00:04:46.318Z,99.99
2019-02-11T00:05:46.336Z,99.99
2019-02-11T00:06:46.368Z,99.99
2019-02-11T00:07:46.385Z,99.99
2019-02-11T00:08:46.412Z,99.99
2019-02-11T00:09:46.430Z,99.99
2019-02-11T00:10:46.467Z,99.99
2019-02-11T00:11:46.477Z,99.99
2019-02-11T00:12:46.504Z,99.99
2019-02-11T00:13:46.521Z,99.99
2019-02-11T00:14:46.694Z,99.99
2019-02-11T00:15:46.565Z,99.99
2019-02-11T00:16:46.589Z,99.99
2019-02-11T00:17:46.612Z,99.99
2019-02-11T00:18:46.636Z,99.99
2019-02-11T00:19:46.666Z,99.99
2019-02-11T00:20:46.692Z,99.99
2019-02-11T00:21:46.706Z,99.99
2019-02-11T00:22:46.806Z,99.99
2019-02-11T00:23:46.750Z,99.99
2019-02-11T00:24:46.790Z,99.99
2019-02-11T00:25:46.805Z,99.99
2019-02-11T00:26:46.825Z,99.99
2019-02-11T00:27:46.848Z,99.99
2019-02-11T00:28:46.897Z,99.99
2019-02-11T00:29:46.891Z,99.99
2019-02-11T00:30:46.913Z,99.99
2019-02-11T00:31:46.938Z,99.99
2019-02-11T00:32:46.982Z,99.99
2019-02-11T00:33:46.983Z,99.99
2019-02-11T00:34:47.007Z,99.99
2019-02-11T00:35:47.030Z,99.99
2019-02-11T00:36:47.053Z,99.99
2019-02-11T00:37:47.696Z,99.99
2019-02-11T00:38:47.105Z,99.99
2019-02-11T00:39:47.121Z,99.99
2019-02-11T00:40:47.143Z,99.99
2019-02-11T00:41:47.169Z,99.99
2019-02-11T00:42:47.214Z,99.99
2019-02-11T00:43:47.214Z,99.99
2019-02-11T00:44:47.241Z,99.99
2019-02-11T00:45:47.264Z,99.99
2019-02-11T00:46:47.285Z,99.99
2019-02-11T00:47:47.307Z,99.99
2019-02-11T00:48:47.329Z,99.99
2019-02-11T00:49:47.354Z,99.99
2019-02-11T00:50:47.376Z,99.99
2019-02-11T00:51:47.401Z,99.99
2019-02-11T00:52:47.424Z,99.99
2019-02-11T00:53:47.853Z,99.99
2019-02-11T00:54:47.470Z,99.99
2019-02-11T00:55:47.494Z,99.99
2019-02-11T00:56:47.513Z,99.99
2019-02-11T00:57:47.538Z,99.99
2019-02-11T00:58:47.561Z,99.99
2019-02-11T00:59:47.585Z,99.99
2019-02-11T01:00:47.609Z,99.99
2019-02-11T01:01:47.632Z,99.99
2019-02-11T01:02:47.660Z,99.99
2019-02-11T01:03:47.679Z,99.99
2019-02-11T01:04:47.711Z,99.99
2019-02-11T01:05:47.728Z,99.99
2019-02-11T01:06:47.751Z,99.99
2019-02-11T01:07:47.773Z,99.99
2019-02-11T01:08:47.808Z,99.99
2019-02-11T01:09:47.819Z,99.99
2019-02-11T01:10:47.849Z,99.99
2019-02-11T01:11:47.862Z,99.99
2019-02-11T01:12:47.885Z,99.99
2019-02-11T01:13:47.912Z,99.99
2019-02-11T01:14:47.937Z,99.99
2019-02-11T01:15:47.967Z,99.99
2019-02-11T01:16:47.980Z,99.99
2019-02-11T01:17:48.012Z,99.99
2019-02-11T01:18:48.025Z,99.99
2019-02-11T01:19:48.054Z,99.99
2019-02-11T01:20:48.078Z,99.99
2019-02-11T01:21:48.100Z,99.99
2019-02-11T01:22:48.125Z,99.99
2019-02-11T01:23:48.146Z,99.99
2019-02-11T01:24:48.165Z,99.99
2019-02-11T01:25:48.188Z,99.99
2019-02-11T01:26:48.211Z,99.99
2019-02-11T01:27:48.236Z,99.99
2019-02-11T01:28:48.259Z,99.99
2019-02-11T01:29:48.282Z,99.99
2019-02-11T01:30:48.303Z,99.99
2019-02-11T01:31:48.327Z,99.99
2019-02-11T01:32:48.349Z,99.99
2019-02-11T01:33:48.378Z,99.99
2019-02-11T01:34:48.400Z,99.99
2019-02-11T01:35:48.421Z,99.99
2019-02-11T01:36:48.449Z,99.99
2019-02-11T01:37:48.466Z,99.99
2019-02-11T01:38:48.490Z,99.99
2019-02-11T01:39:48.515Z,99.99
2019-02-11T01:40:48.540Z,99.99
2019-02-11T01:41:48.560Z,99.99
2019-02-11T01:42:48.585Z,99.99
2019-02-11T01:43:48.605Z,99.99
2019-02-11T01:44:48.632Z,99.99
2019-02-11T01:45:48.657Z,99.99
2019-02-11T01:46:48.724Z,99.99
2019-02-11T01:47:48.702Z,99.99
2019-02-11T01:48:48.724Z,99.99
2019-02-11T01:49:48.752Z,99.99
2019-02-11T01:50:48.769Z,99.99
2019-02-11T01:51:48.795Z,99.99
2019-02-11T01:52:48.823Z,99.99
2019-02-11T01:53:48.845Z,99.99
2019-02-11T01:54:48.862Z,99.99
2019-02-11T01:55:48.888Z,99.99
2019-02-11T01:56:48.914Z,99.99
2019-02-11T01:57:48.937Z,99.99
2019-02-11T01:58:48.953Z,99.99
2019-02-11T01:59:48.978Z,99.99
2019-02-11T02:00:49.003Z,99.99
2019-02-11T02:01:49.026Z,99.99
2019-02-11T02:02:49.051Z,99.99
2019-02-11T02:03:49.072Z,99.99
2019-02-11T02:04:49.094Z,99.99
2019-02-11T02:05:49.124Z,99.99
2019-02-11T02:06:49.149Z,99.99
2019-02-11T02:07:49.172Z,99.99
2019-02-11T02:08:49.191Z,99.99
2019-02-11T02:09:49.212Z,99.99
2019-02-11T02:10:49.233Z,99.99
2019-02-11T02:11:49.260Z,99.99
2019-02-11T02:12:49.279Z,99.99
2019-02-11T02:13:49.311Z,99.99
2019-02-11T02:14:49.326Z,99.99
2019-02-11T02:15:49.361Z,99.99
2019-02-11T02:16:49.374Z,99.99
2019-02-11T02:17:49.396Z,99.99
2019-02-11T02:18:49.421Z,99.99
2019-02-11T02:19:49.442Z,99.99
2019-02-11T02:20:49.467Z,99.99
2019-02-11T02:21:49.489Z,99.99
2019-02-11T02:22:49.513Z,99.99
2019-02-11T02:23:49.546Z,99.99
2019-02-11T02:24:49.559Z,99.99
2019-02-11T02:25:49.590Z,99.99
2019-02-11T02:26:49.611Z,99.99
2019-02-11T02:27:49.633Z,99.99
2019-02-11T02:28:49.652Z,99.99
2019-02-11T02:29:49.674Z,99.99
2019-02-11T02:30:49.698Z,99.99
2019-02-11T02:31:49.726Z,99.99
2019-02-11T02:32:49.745Z,99.99
2019-02-11T02:33:49.773Z,99.99
2019-02-11T02:34:49.792Z,99.99
2019-02-11T02:35:49.823Z,99.99
2019-02-11T02:36:49.836Z,99.99
2019-02-11T02:37:49.863Z,99.99
2019-02-11T02:38:49.883Z,99.99
2019-02-11T02:39:49.915Z,99.99
2019-02-11T02:40:49.938Z,99.99
2019-02-11T02:41:49.955Z,99.99
2019-02-11T02:42:49.980Z,99.99
2019-02-11T02:43:55.658Z,99.99
2019-02-11T02:44:50.024Z,99.99
2019-02-11T02:45:50.055Z,99.99
2019-02-11T02:46:50.081Z,99.99
2019-02-11T02:47:50.093Z,99.99
2019-02-11T02:48:50.124Z,99.99
2019-02-11T02:49:50.143Z,99.99
2019-02-11T02:50:50.166Z,99.99
2019-02-11T02:51:50.187Z,99.99
2019-02-11T02:52:50.212Z,99.99
2019-02-11T02:53:50.240Z,99.99
2019-02-11T02:54:50.255Z,99.99
2019-02-11T02:55:50.292Z,99.99
2019-02-11T02:56:50.303Z,99.99
2019-02-11T02:57:50.324Z,99.99
2019-02-11T02:58:50.351Z,99.99
2019-02-11T02:59:50.379Z,99.99
2019-02-11T03:00:50.398Z,99.99
2019-02-11T03:01:50.427Z,99.99
2019-02-11T03:02:50.446Z,99.99
2019-02-11T03:03:50.474Z,99.99
2019-02-11T03:04:50.495Z,99.99
2019-02-11T03:05:52.894Z,99.99
2019-02-11T03:06:50.536Z,99.99
2019-02-11T03:07:50.559Z,99.99
2019-02-11T03:08:50.582Z,99.99
2019-02-11T03:09:50.607Z,99.99
2019-02-11T03:10:50.630Z,99.99
2019-02-11T03:11:50.655Z,99.99
2019-02-11T03:12:50.677Z,99.99
2019-02-11T03:13:50.700Z,99.99
2019-02-11T03:14:50.734Z,99.99
2019-02-11T03:15:50.753Z,99.99
2019-02-11T03:16:50.772Z,99.99
2019-02-11T03:17:50.792Z,99.99
2019-02-11T03:18:50.815Z,99.99
2019-02-11T03:19:50.841Z,99.99
2019-02-11T03:20:50.866Z,99.99
2019-02-11T03:21:50.885Z,99.99
2019-02-11T03:22:50.922Z,99.99
2019-02-11T03:23:50.932Z,99.99
2019-02-11T03:24:50.957Z,99.99
2019-02-11T03:25:50.981Z,99.99
2019-02-11T03:26:51.006Z,99.99
2019-02-11T03:27:51.033Z,99.99
2019-02-11T03:28:51.048Z,99.99
2019-02-11T03:29:51.082Z,99.99
2019-02-11T03:30:51.117Z,99.99
2019-02-11T03:31:51.123Z,99.99
2019-02-11T03:32:51.162Z,99.99
2019-02-11T03:33:51.168Z,99.99
2019-02-11T03:34:51.195Z,99.99
2019-02-11T03:35:51.214Z,99.99
2019-02-11T03:36:51.237Z,99.99
2019-02-11T03:37:51.257Z,99.99
2019-02-11T03:38:51.282Z,99.99
2019-02-11T03:39:51.358Z,99.99
2019-02-11T03:40:51.338Z,99.99
2019-02-11T03:41:51.352Z,99.99
2019-02-11T03:42:51.387Z,99.99
2019-02-11T03:43:51.406Z,99.99
2019-02-11T03:44:51.423Z,99.99
2019-02-11T03:45:51.446Z,99.99
2019-02-11T03:46:51.477Z,99.99
2019-02-11T03:47:51.578Z,99.99
2019-02-11T03:48:51.517Z,99.99
2019-02-11T03:49:51.546Z,99.99
2019-02-11T03:50:51.569Z,99.99
2019-02-11T03:51:51.592Z,99.99
2019-02-11T03:52:51.611Z,99.99
2019-02-11T03:53:51.638Z,99.99
2019-02-11T03:54:51.656Z,99.99
2019-02-11T03:55:51.680Z,99.99
2019-02-11T03:56:51.701Z,99.99
2019-02-11T03:57:51.724Z,99.99
2019-02-11T03:58:51.763Z,99.99
2019-02-11T03:59:51.779Z,99.99
2019-02-11T04:00:51.798Z,99.99
2019-02-11T04:01:51.820Z,99.99
2019-02-11T04:02:51.842Z,99.99
2019-02-11T04:03:51.867Z,99.99
2019-02-11T04:04:51.888Z,99.99
2019-02-11T04:05:51.915Z,99.99
2019-02-11T04:06:51.933Z,99.99
2019-02-11T04:07:51.958Z,99.99
2019-02-11T04:08:51.981Z,99.99
2019-02-11T04:09:52.003Z,99.99
2019-02-11T04:10:52.030Z,99.99
2019-02-11T04:11:52.063Z,99.99
2019-02-11T04:12:52.073Z,99.99
2019-02-11T04:13:52.097Z,99.99
2019-02-11T04:14:52.121Z,99.99
2019-02-11T04:15:52.141Z,99.99
2019-02-11T04:16:52.166Z,99.99
2019-02-11T04:17:52.188Z,99.99
2019-02-11T04:18:52.210Z,99.99
2019-02-11T04:19:52.233Z,99.99
2019-02-11T04:20:52.263Z,99.99
2019-02-11T04:21:52.282Z,99.99
2019-02-11T04:22:52.305Z,99.99
2019-02-11T04:23:52.329Z,99.99
2019-02-11T04:24:52.349Z,99.99
2019-02-11T04:25:52.375Z,99.99
2019-02-11T04:26:52.398Z,99.99
2019-02-11T04:27:52.421Z,99.99
2019-02-11T04:28:52.441Z,99.99
2019-02-11T04:29:52.467Z,99.99
2019-02-11T04:30:52.496Z,99.99
2019-02-11T04:31:52.518Z,99.99
2019-02-11T04:32:52.541Z,99.99
2019-02-11T04:33:52.565Z,99.99
2019-02-11T04:34:52.582Z,99.99
2019-02-11T04:35:52.611Z,99.99
2019-02-11T04:36:52.632Z,99.99
2019-02-11T04:37:52.648Z,99.99
2019-02-11T04:38:52.675Z,99.99
2019-02-11T04:39:52.706Z,99.99
2019-02-11T04:40:52.721Z,99.99
2019-02-11T04:41:52.742Z,99.99
2019-02-11T04:42:52.765Z,99.99
2019-02-11T04:43:52.796Z,99.99
2019-02-11T04:44:52.834Z,99.99
2019-02-11T04:45:52.836Z,99.99
2019-02-11T04:46:52.870Z,99.99
2019-02-11T04:47:52.886Z,99.99
2019-02-11T04:48:52.910Z,99.99
2019-02-11T04:49:52.940Z,99.99
2019-02-11T04:50:52.951Z,99.99
2019-02-11T04:51:52.973Z,99.99
2019-02-11T04:52:52.997Z,99.99
2019-02-11T04:53:53.020Z,99.99
2019-02-11T04:54:53.045Z,99.99
2019-02-11T04:55:53.067Z,99.99
2019-02-11T04:56:53.093Z,99.99
2019-02-11T04:57:53.112Z,99.99
2019-02-11T04:58:53.176Z,99.99
2019-02-11T04:59:53.166Z,99.99
2019-02-11T05:00:53.193Z,99.99
2019-02-11T05:01:53.611Z,99.99
2019-02-11T05:02:53.229Z,99.99
2019-02-11T05:03:54.075Z,99.99
2019-02-11T05:04:53.273Z,99.99
2019-02-11T05:05:53.314Z,99.99
2019-02-11T05:06:53.320Z,99.99
2019-02-11T05:07:53.341Z,99.99
2019-02-11T05:08:53.670Z,99.99
2019-02-11T05:09:53.660Z,99.99
2019-02-11T05:10:53.665Z,99.99
2019-02-11T05:11:53.437Z,99.99
2019-02-11T05:12:53.656Z,99.99
2019-02-11T05:13:53.480Z,99.99
2019-02-11T05:14:53.510Z,99.99
2019-02-11T05:15:53.681Z,99.99
2019-02-11T05:16:53.550Z,99.99
2019-02-11T05:17:53.579Z,99.99
2019-02-11T05:18:53.602Z,99.99
2019-02-11T05:19:53.653Z,99.99
2019-02-11T05:20:53.642Z,99.99
2019-02-11T05:21:53.662Z,99.99
2019-02-11T05:22:53.686Z,99.99
2019-02-11T05:23:53.724Z,99.99
2019-02-11T05:24:53.729Z,99.99
2019-02-11T05:25:53.754Z,99.99
2019-02-11T05:26:53.777Z,99.99
2019-02-11T05:27:53.804Z,99.99
2019-02-11T05:28:53.827Z,99.99
2019-02-11T05:29:53.846Z,99.99
2019-02-11T05:30:53.869Z,99.99
2019-02-11T05:31:53.894Z,99.99
2019-02-11T05:32:53.921Z,99.99
2019-02-11T05:33:53.938Z,99.99
2019-02-11T05:34:53.972Z,99.99
2019-02-11T05:35:53.996Z,99.99
2019-02-11T05:36:54.005Z,99.99
2019-02-11T05:37:54.033Z,99.99
2019-02-11T05:38:54.055Z,99.99
2019-02-11T05:39:54.077Z,99.99
2019-02-11T05:40:54.118Z,99.99
2019-02-11T05:41:54.124Z,99.99
2019-02-11T05:42:54.146Z,99.99
2019-02-11T05:43:54.169Z,99.99
2019-02-11T05:44:54.418Z,99.99
2019-02-11T05:45:54.217Z,99.99
2019-02-11T05:46:54.245Z,99.99
2019-02-11T05:47:54.265Z,99.99
2019-02-11T05:48:54.286Z,99.99
2019-02-11T05:49:54.308Z,99.99
2019-02-11T05:50:54.337Z,99.99
2019-02-11T05:51:54.349Z,99.99
2019-02-11T05:52:54.374Z,99.99
2019-02-11T05:53:54.397Z,99.99
2019-02-11T05:54:54.427Z,99.99
2019-02-11T05:55:54.440Z,99.99
2019-02-11T05:56:54.463Z,99.99
2019-02-11T05:57:54.489Z,99.99
2019-02-11T05:58:54.512Z,99.99
2019-02-11T05:59:54.532Z,99.99
2019-02-11T06:00:54.555Z,99.99
2019-02-11T06:01:54.586Z,99.99
2019-02-11T06:02:54.605Z,99.99
2019-02-11T06:03:54.623Z,99.99
2019-02-11T06:04:54.654Z,99.99
2019-02-11T06:05:54.672Z,99.99
2019-02-11T06:06:54.706Z,99.99
2019-02-11T06:07:54.718Z,99.99
2019-02-11T06:08:54.742Z,99.99
2019-02-11T06:09:54.763Z,99.99
2019-02-11T06:10:54.783Z,99.99
2019-02-11T06:11:54.808Z,99.99
2019-02-11T06:12:54.828Z,99.99
2019-02-11T06:13:54.859Z,99.99
2019-02-11T06:15:03.740Z,99.99
2019-02-11T06:15:54.896Z,99.99
2019-02-11T06:16:54.977Z,99.99
2019-02-11T06:17:55.056Z,99.99
2019-02-11T06:18:55.095Z,99.99
2019-02-11T06:19:55.101Z,99.99
2019-02-11T06:20:55.018Z,99.99
2019-02-11T06:21:55.031Z,99.99
2019-02-11T06:22:55.061Z,99.99
2019-02-11T06:23:55.083Z,99.99
2019-02-11T06:24:55.101Z,99.99
2019-02-11T06:25:55.126Z,99.99
2019-02-11T06:26:55.154Z,99.99
2019-02-11T06:27:55.170Z,99.99
2019-02-11T06:28:55.194Z,99.99
2019-02-11T06:29:55.223Z,99.99
2019-02-11T06:30:55.242Z,99.99
2019-02-11T06:31:55.261Z,99.99
2019-02-11T06:32:55.283Z,99.99
2019-02-11T06:33:55.306Z,99.99
2019-02-11T06:34:55.327Z,99.99
2019-02-11T06:35:55.352Z,99.99
2019-02-11T06:36:55.374Z,99.99
2019-02-11T06:37:55.405Z,99.99
2019-02-11T06:38:55.419Z,99.99
2019-02-11T06:39:55.441Z,99.99
2019-02-11T06:40:55.464Z,99.99
2019-02-11T06:41:55.488Z,99.99
2019-02-11T06:42:55.513Z,99.99
2019-02-11T06:43:55.535Z,99.99
2019-02-11T06:44:55.554Z,99.99
2019-02-11T06:45:55.579Z,99.99
2019-02-11T06:46:55.602Z,99.99
2019-02-11T06:47:55.631Z,99.99
2019-02-11T06:48:55.650Z,99.99
2019-02-11T06:49:55.674Z,99.99
2019-02-11T06:50:55.698Z,99.99
2019-02-11T06:51:55.720Z,99.99
2019-02-11T06:52:55.738Z,99.99
2019-02-11T06:53:55.762Z,99.99
2019-02-11T06:54:55.784Z,99.99
2019-02-11T06:55:55.805Z,99.99
2019-02-11T06:56:55.876Z,99.99
2019-02-11T06:57:55.852Z,99.99
2019-02-11T06:58:55.878Z,99.99
2019-02-11T06:59:55.898Z,99.99
2019-02-11T07:00:55.918Z,99.99
2019-02-11T07:01:55.944Z,99.99
2019-02-11T07:02:55.973Z,99.99
2019-02-11T07:03:55.987Z,99.99
2019-02-11T07:04:56.018Z,99.99
2019-02-11T07:05:56.039Z,99.99
2019-02-11T07:06:56.064Z,99.99
2019-02-11T07:07:56.080Z,99.99
2019-02-11T07:08:56.102Z,99.99
2019-02-11T07:09:56.123Z,99.99
2019-02-11T07:10:56.149Z,99.99
2019-02-11T07:11:56.169Z,99.99
2019-02-11T07:12:56.192Z,99.99
2019-02-11T07:13:56.218Z,99.99
2019-02-11T07:14:56.237Z,99.99
2019-02-11T07:15:56.262Z,99.99
2019-02-11T07:16:56.291Z,99.99
2019-02-11T07:17:56.313Z,99.99
2019-02-11T07:18:56.331Z,99.99
2019-02-11T07:19:56.354Z,99.99
2019-02-11T07:20:56.376Z,99.99
2019-02-11T07:21:56.399Z,99.99
2019-02-11T07:22:56.419Z,99.99
2019-02-11T07:23:56.442Z,99.99
2019-02-11T07:24:56.465Z,99.99
2019-02-11T07:25:56.490Z,99.99
2019-02-11T07:26:56.511Z,99.99
2019-02-11T07:27:56.534Z,99.99
2019-02-11T07:28:56.556Z,99.99
2019-02-11T07:29:56.581Z,99.99
2019-02-11T07:30:56.604Z,99.99
2019-02-11T07:31:56.627Z,99.99
2019-02-11T07:32:56.654Z,99.99
2019-02-11T07:33:56.673Z,99.99
2019-02-11T07:34:56.697Z,99.99
2019-02-11T07:35:56.719Z,99.99
2019-02-11T07:36:56.747Z,99.99
2019-02-11T07:37:56.762Z,99.99
2019-02-11T07:38:56.787Z,99.99
2019-02-11T07:39:56.817Z,99.99
2019-02-11T07:40:56.832Z,99.99
2019-02-11T07:41:56.853Z,99.99
2019-02-11T07:42:56.877Z,99.99
2019-02-11T07:43:56.902Z,99.99
2019-02-11T07:44:56.927Z,99.99
2019-02-11T07:45:56.951Z,99.99
2019-02-11T07:46:56.969Z,99.99
2019-02-11T07:47:57.003Z,99.99
2019-02-11T07:48:57.013Z,99.99
2019-02-11T07:49:57.037Z,99.99
2019-02-11T07:50:57.062Z,99.99
2019-02-11T07:51:57.083Z,99.99
2019-02-11T07:52:57.121Z,99.99
2019-02-11T07:53:57.131Z,99.99
2019-02-11T07:54:57.160Z,99.99
2019-02-11T07:55:57.184Z,99.99
2019-02-11T07:56:57.206Z,99.99
2019-02-11T07:57:57.221Z,99.99
2019-02-11T07:58:57.244Z,99.99
2019-02-11T07:59:57.440Z,99.99
2019-02-11T08:00:57.297Z,99.99
2019-02-11T08:01:57.325Z,99.99
2019-02-11T08:02:57.345Z,99.99
2019-02-11T08:03:57.363Z,99.99
2019-02-11T08:04:57.383Z,99.99
2019-02-11T08:05:57.408Z,99.99
2019-02-11T08:06:57.432Z,99.99
2019-02-11T08:07:57.462Z,99.99
2019-02-11T08:08:57.478Z,99.99
2019-02-11T08:09:57.507Z,99.99
2019-02-11T08:10:57.525Z,99.99
2019-02-11T08:11:57.550Z,99.99
2019-02-11T08:12:57.568Z,99.99
2019-02-11T08:13:57.598Z,99.99
2019-02-11T08:14:57.617Z,99.99
2019-02-11T08:15:57.648Z,99.99
2019-02-11T08:16:57.664Z,99.99
2019-02-11T08:17:58.200Z,99.99
2019-02-11T08:18:57.708Z,99.99
2019-02-11T08:19:57.731Z,99.99
2019-02-11T08:20:57.762Z,99.99
2019-02-11T08:21:57.779Z,99.99
2019-02-11T08:22:57.802Z,99.99
2019-02-11T08:23:57.827Z,99.99
2019-02-11T08:24:57.850Z,99.99
2019-02-11T08:25:57.873Z,99.99
2019-02-11T08:26:57.896Z,99.99
2019-02-11T08:27:57.917Z,99.99
2019-02-11T08:28:57.941Z,99.99
2019-02-11T08:29:57.963Z,99.99
2019-02-11T08:30:57.995Z,99.99
2019-02-11T08:31:58.010Z,99.99
2019-02-11T08:32:58.034Z,99.99
2019-02-11T08:33:58.067Z,99.99
2019-02-11T08:34:58.079Z,99.99
2019-02-11T08:35:58.107Z,99.99
2019-02-11T08:36:58.131Z,99.99
2019-02-11T08:37:58.152Z,99.99
2019-02-11T08:38:58.172Z,99.99
2019-02-11T08:39:58.198Z,99.99
2019-02-11T08:40:58.228Z,99.99
2019-02-11T08:41:58.242Z,99.99
2019-02-11T08:42:58.265Z,99.99
2019-02-11T08:43:58.361Z,99.99
2019-02-11T08:44:58.320Z,99.99
2019-02-11T08:45:58.338Z,99.99
2019-02-11T08:46:58.362Z,99.99
2019-02-11T08:47:58.382Z,99.99
2019-02-11T08:48:58.405Z,99.99
2019-02-11T08:49:58.430Z,99.99
2019-02-11T08:50:58.461Z,99.99
2019-02-11T08:51:58.474Z,99.99
2019-02-11T08:52:58.507Z,99.99
2019-02-11T08:53:58.524Z,99.99
2019-02-11T08:54:58.546Z,99.99
2019-02-11T08:55:58.571Z,99.99
2019-02-11T08:56:58.600Z,99.99
2019-02-11T08:57:58.618Z,99.99
2019-02-11T08:58:58.638Z,99.99
2019-02-11T08:59:58.661Z,99.99
2019-02-11T09:00:58.685Z,99.99
2019-02-11T09:01:58.717Z,99.99
2019-02-11T09:02:58.746Z,99.99
2019-02-11T09:03:58.758Z,99.99
2019-02-11T09:04:58.779Z,99.99
2019-02-11T09:05:58.801Z,99.99
2019-02-11T09:06:58.827Z,99.99
2019-02-11T09:07:58.850Z,99.99
2019-02-11T09:08:58.871Z,99.99
2019-02-11T09:09:58.895Z,99.99
2019-02-11T09:10:58.927Z,99.99
2019-02-11T09:11:58.944Z,99.99
2019-02-11T09:12:58.967Z,99.99
2019-02-11T09:13:58.988Z,99.99
2019-02-11T09:14:59.018Z,99.99
2019-02-11T09:15:59.035Z,99.99
2019-02-11T09:16:59.058Z,99.99
2019-02-11T09:17:59.081Z,99.99
2019-02-11T09:18:59.108Z,99.99
2019-02-11T09:19:59.130Z,99.99
2019-02-11T09:20:59.151Z,99.99
2019-02-11T09:22:07.100Z,99.99
2019-02-11T09:22:59.207Z,99.99
2019-02-11T09:23:59.236Z,99.99
2019-02-11T09:24:59.247Z,99.99
2019-02-11T09:25:59.284Z,99.99
2019-02-11T09:26:59.293Z,99.99
2019-02-11T09:27:59.322Z,99.99
2019-02-11T09:28:59.340Z,99.99
2019-02-11T09:29:59.371Z,99.99
2019-02-11T09:30:59.399Z,99.99
2019-02-11T09:31:59.415Z,99.99
2019-02-11T09:33:02.064Z,99.99
2019-02-11T09:33:59.466Z,99.99
2019-02-11T09:34:59.492Z,99.99
2019-02-11T09:35:59.522Z,99.99
2019-02-11T09:36:59.539Z,99.99
2019-02-11T09:37:59.565Z,99.99
2019-02-11T09:38:59.591Z,99.99
2019-02-11T09:39:59.617Z,99.99
2019-02-11T09:40:59.640Z,99.99
2019-02-11T09:41:59.668Z,99.99
2019-02-11T09:42:59.692Z,99.99
2019-02-11T09:43:59.722Z,99.99
2019-02-11T09:44:59.745Z,99.99
2019-02-11T09:46:04.014Z,99.99
2019-02-11T09:46:59.797Z,99.99
2019-02-11T09:47:59.819Z,99.99
2019-02-11T09:48:59.849Z,99.99
2019-02-11T09:49:59.875Z,99.99
2019-02-11T09:51:00.003Z,99.99
2019-02-11T09:51:59.919Z,99.99
2019-02-11T09:52:59.953Z,99.99
2019-02-11T09:53:59.989Z,99.99
2019-02-11T09:54:59.998Z,99.99
2019-02-11T09:56:00.023Z,99.99
2019-02-11T09:57:00.047Z,99.99
2019-02-11T09:58:00.076Z,99.99
2019-02-11T09:59:00.199Z,99.99
2019-02-11T10:00:00.256Z,99.99
2019-02-11T10:01:00.144Z,99.99
2019-02-11T10:02:00.170Z,99.99
2019-02-11T10:03:00.198Z,99.99
2019-02-11T10:04:00.223Z,99.99
2019-02-11T10:05:00.322Z,99.99
2019-02-11T10:06:00.274Z,99.99
2019-02-11T10:07:00.296Z,99.99
2019-02-11T10:08:00.324Z,99.99
2019-02-11T10:09:00.347Z,99.99
2019-02-11T10:10:00.375Z,99.99
2019-02-11T10:11:00.400Z,99.99
2019-02-11T10:12:00.436Z,99.99
2019-02-11T10:13:00.503Z,99.99
2019-02-11T10:14:00.574Z,99.99
2019-02-11T10:15:00.663Z,99.99
2019-02-11T10:16:00.525Z,99.99
2019-02-11T10:17:00.552Z,99.99
2019-02-11T10:18:00.577Z,99.99
2019-02-11T10:19:00.610Z,99.99
2019-02-11T10:20:00.628Z,99.99
2019-02-11T10:21:00.653Z,99.99
2019-02-11T10:22:00.679Z,99.99
2019-02-11T10:23:00.707Z,99.99
2019-02-11T10:24:00.728Z,99.99
2019-02-11T10:25:00.753Z,99.99
2019-02-11T10:26:00.780Z,99.99
2019-02-11T10:27:00.804Z,99.99
2019-02-11T10:28:00.832Z,99.99
2019-02-11T10:29:00.860Z,99.99
2019-02-11T10:30:00.879Z,99.99
2019-02-11T10:31:00.909Z,99.99
2019-02-11T10:32:00.937Z,99.99
2019-02-11T10:33:00.969Z,99.99
2019-02-11T10:34:00.984Z,99.99
2019-02-11T10:35:01.008Z,99.99
2019-02-11T10:36:01.034Z,99.99
2019-02-11T10:37:01.060Z,99.99
2019-02-11T10:38:01.085Z,99.99
2019-02-11T10:39:01.111Z,99.99
2019-02-11T10:40:01.134Z,99.99
2019-02-11T10:41:01.160Z,99.99
2019-02-11T10:42:01.189Z,99.99
2019-02-11T10:43:01.215Z,99.99
2019-02-11T10:44:01.236Z,99.99
2019-02-11T10:45:01.264Z,99.99
2019-02-11T10:46:01.285Z,99.99
2019-02-11T10:47:01.308Z,99.99
2019-02-11T10:48:01.337Z,99.99
2019-02-11T10:49:01.362Z,99.99
2019-02-11T10:50:01.386Z,99.99
2019-02-11T10:51:01.411Z,98.32
2019-02-11T10:52:01.440Z,94.27
2019-02-11T10:53:01.471Z,92.74
2019-02-11T10:54:01.490Z,92.50
2019-02-11T10:55:01.524Z,94.17
2019-02-11T10:56:01.546Z,96.80
2019-02-11T10:57:01.573Z,98.32
2019-02-11T10:58:01.604Z,97.36
2019-02-11T10:59:01.631Z,95.98
2019-02-11T11:00:01.660Z,94.22
2019-02-11T11:01:01.692Z,93.08
2019-02-11T11:02:01.719Z,90.64
2019-02-11T11:03:01.746Z,89.39
2019-02-11T11:04:01.782Z,86.82
2019-02-11T11:05:01.813Z,85.29
2019-02-11T11:06:01.830Z,84.85
2019-02-11T11:07:01.866Z,83.90
2019-02-11T11:08:01.891Z,82.79
2019-02-11T11:09:01.920Z,81.74
2019-02-11T11:10:01.983Z,81.03
2019-02-11T11:11:02.192Z,83.76
2019-02-11T11:12:02.014Z,84.66
2019-02-11T11:13:02.042Z,84.05
2019-02-11T11:14:02.074Z,84.05
2019-02-11T11:15:02.105Z,84.14
2019-02-11T11:16:02.145Z,84.23
2019-02-11T11:17:02.172Z,83.67
2019-02-11T11:18:02.205Z,84.09
2019-02-11T11:20:09.908Z,82.28
2019-02-11T11:21:09.941Z,81.51
2019-02-11T11:22:09.973Z,81.41
2019-02-11T11:23:10.005Z,79.73
2019-02-11T11:24:10.042Z,79.22
2019-02-11T11:25:10.074Z,82.63
2019-02-11T11:26:10.111Z,88.93
2019-02-11T11:27:10.143Z,92.79
2019-02-11T11:28:10.178Z,96.84
2019-02-11T11:29:10.203Z,99.65
2019-02-11T11:30:10.238Z,99.99
2019-02-11T11:31:10.276Z,99.99
2019-02-11T11:32:10.304Z,99.99
2019-02-11T11:33:10.329Z,99.99
2019-02-11T11:34:10.361Z,99.99
2019-02-11T11:35:10.398Z,99.99
2019-02-11T11:36:13.048Z,99.99
2019-02-11T11:37:10.453Z,99.99
2019-02-11T11:38:10.488Z,99.99
2019-02-11T11:39:10.514Z,99.99
2019-02-11T11:40:10.541Z,99.99
2019-02-11T11:41:10.572Z,99.99
2019-02-11T11:42:10.599Z,99.99
2019-02-11T11:43:10.630Z,99.99
2019-02-11T11:44:10.659Z,99.99
2019-02-11T11:45:10.684Z,99.99
2019-02-11T11:46:10.714Z,99.99
2019-02-11T11:47:10.740Z,99.99
2019-02-11T11:48:10.778Z,99.99
2019-02-11T11:49:10.794Z,99.99
2019-02-11T11:50:10.822Z,99.99
2019-02-11T11:51:10.851Z,99.99
2019-02-11T11:52:10.877Z,99.99
2019-02-11T11:53:10.910Z,99.99
2019-02-11T11:54:10.931Z,99.99
2019-02-11T11:55:10.956Z,99.99
2019-02-11T11:56:11.014Z,99.99
2019-02-11T11:57:11.009Z,99.99
2019-02-11T11:58:11.042Z,99.99
2019-02-11T11:59:11.067Z,99.99
2019-02-11T12:00:11.087Z,99.99
2019-02-11T12:01:11.110Z,99.99
2019-02-11T12:02:15.520Z,99.99
2019-02-11T12:03:11.170Z,99.99
2019-02-11T12:04:11.189Z,99.99
2019-02-11T12:05:11.214Z,99.99
2019-02-11T12:06:11.244Z,99.99
2019-02-11T12:07:11.268Z,99.99
2019-02-11T12:08:11.295Z,99.99
2019-02-11T12:09:11.323Z,99.99
2019-02-11T12:10:11.350Z,99.99
2019-02-11T12:11:11.416Z,99.99
2019-02-11T12:12:13.231Z,99.99
2019-02-11T12:13:22.702Z,99.99
2019-02-11T12:14:11.452Z,96.36
2019-02-11T12:15:11.472Z,94.70
2019-02-11T12:16:11.495Z,95.70
2019-02-11T12:17:11.624Z,99.36
2019-02-11T12:18:11.553Z,99.99
2019-02-11T12:19:11.580Z,99.99
2019-02-11T12:20:11.603Z,97.56
2019-02-11T12:21:11.628Z,94.46
2019-02-11T12:22:13.155Z,92.93
2019-02-11T12:23:11.681Z,92.08
2019-02-11T12:24:11.709Z,91.83
2019-02-11T12:25:11.737Z,90.26
2019-02-11T12:26:11.767Z,89.78
2019-02-11T12:27:11.793Z,88.64
2019-02-11T12:28:11.824Z,87.92
2019-02-11T12:29:11.944Z,87.15
2019-02-11T12:30:11.889Z,86.77
2019-02-11T12:31:11.912Z,87.44
2019-02-11T12:32:59.508Z,86.15
2019-02-11T12:36:25.418Z,85.63
2019-02-11T12:37:25.446Z,86.68
2019-02-11T12:38:25.474Z,88.26
2019-02-11T12:39:25.537Z,91.94
2019-02-11T12:40:25.559Z,96.46
2019-02-11T12:41:25.590Z,99.99
2019-02-11T12:42:25.594Z,99.99
2019-02-11T12:43:25.655Z,99.99
2019-02-11T12:44:25.659Z,99.99
2019-02-11T12:45:25.689Z,99.99
2019-02-11T12:46:25.735Z,99.99
2019-02-11T12:47:25.758Z,99.99
2019-02-11T12:48:25.784Z,99.99
2019-02-11T12:49:25.799Z,99.99
2019-02-11T12:50:25.848Z,99.99
2019-02-11T12:51:25.879Z,99.99
2019-02-11T12:52:25.890Z,99.99
2019-02-11T12:53:25.917Z,99.99
2019-02-11T12:54:25.951Z,99.99
2019-02-11T12:55:25.976Z,99.99
2019-02-11T12:56:26.000Z,99.99
2019-02-11T12:57:26.041Z,99.99